createdAt,value
2022-09-10T00:03:06.108Z,13.05
2022-09-10T00:11:13.113Z,12.25
2022-09-10T00:19:22.011Z,12.20
2022-09-10T00:27:27.539Z,12.57
2022-09-10T00:35:39.825Z,11.40
2022-09-10T00:43:51.597Z,11.30
2022-09-10T00:52:00.231Z,9.63
2022-09-10T01:00:09.830Z,9.80
2022-09-10T01:08:19.929Z,10.02
2022-09-10T01:16:34.868Z,10.90
2022-09-10T01:24:54.477Z,10.55
2022-09-10T01:33:10.358Z,10.40
2022-09-10T01:41:19.594Z,9.80
2022-09-10T01:49:40.529Z,10.30
2022-09-10T01:57:55.516Z,9.88
2022-09-10T02:06:12.513Z,12.10
2022-09-10T02:14:18.060Z,12.32
2022-09-10T02:22:49.275Z,11.70
2022-09-10T02:30:56.360Z,10.23
2022-09-10T02:39:05.291Z,11.80
2022-09-10T02:47:10.970Z,11.90
2022-09-10T02:55:19.139Z,10.75
2022-09-10T03:03:25.408Z,11.48
2022-09-10T03:11:34.952Z,11.82
2022-09-10T03:19:40.367Z,11.23
2022-09-10T03:27:48.473Z,11.38
2022-09-10T03:35:57.070Z,10.23
2022-09-10T03:44:09.408Z,9.25
2022-09-10T03:52:14.851Z,10.90
2022-09-10T04:00:24.542Z,10.70
2022-09-10T04:08:29.946Z,10.05
2022-09-10T04:16:38.062Z,10.95
2022-09-10T04:24:45.582Z,10.38
2022-09-10T04:32:54.917Z,9.57
2022-09-10T04:41:00.818Z,8.75
2022-09-10T04:49:09.935Z,8.68
2022-09-10T04:57:15.582Z,7.35
2022-09-10T05:05:23.653Z,7.53
2022-09-10T05:13:31.152Z,9.35
2022-09-10T05:21:40.660Z,9.90
2022-09-10T05:29:46.099Z,9.18
2022-09-10T05:37:54.260Z,10.27
2022-09-10T05:46:00.022Z,10.35
2022-09-10T05:54:08.461Z,9.75
2022-09-10T06:02:23.971Z,8.82
2022-09-10T06:10:35.225Z,10.27
2022-09-10T06:18:40.841Z,9.13
2022-09-10T06:26:51.790Z,10.07
2022-09-10T06:34:57.250Z,9.77
2022-09-10T06:43:07.224Z,9.63
2022-09-10T06:51:39.655Z,9.75
2022-09-10T06:59:49.812Z,10.93
2022-09-10T07:07:55.555Z,10.80
2022-09-10T07:16:04.321Z,9.93
2022-09-10T07:24:12.959Z,9.05
2022-09-10T07:32:23.582Z,9.43
2022-09-10T07:40:37.103Z,9.43
2022-09-10T07:48:48.647Z,10.60
2022-09-10T07:56:55.066Z,9.20
2022-09-10T08:05:04.414Z,9.65
2022-09-10T08:13:12.929Z,9.50
2022-09-10T08:21:22.163Z,8.98
2022-09-10T08:29:28.829Z,10.77
2022-09-10T08:37:38.208Z,8.43
2022-09-10T08:45:50.720Z,10.73
2022-09-10T09:02:37.853Z,9.65
2022-09-10T09:10:51.586Z,9.93
2022-09-10T09:19:17.366Z,9.57
2022-09-10T09:27:29.498Z,8.27
2022-09-10T09:35:45.753Z,6.38
2022-09-10T09:43:59.040Z,5.78
2022-09-10T09:52:19.359Z,5.22
2022-09-10T10:00:41.971Z,4.82
2022-09-10T10:08:49.477Z,5.38
2022-09-10T10:17:00.658Z,4.53
2022-09-10T10:25:09.506Z,4.07
2022-09-10T10:33:26.685Z,3.87
2022-09-10T10:41:58.897Z,4.20
2022-09-10T10:50:21.510Z,4.72
2022-09-10T10:58:49.181Z,5.00
2022-09-10T11:07:13.177Z,6.47
2022-09-10T11:15:29.549Z,5.90
2022-09-10T11:23:51.470Z,4.82
2022-09-10T11:32:04.732Z,4.43
2022-09-10T11:40:29.206Z,4.28
2022-09-10T11:48:38.437Z,3.70
2022-09-10T11:57:05.338Z,3.58
2022-09-10T12:05:23.762Z,3.85
2022-09-10T12:13:33.391Z,5.90
2022-09-10T12:21:43.233Z,4.43
2022-09-10T12:29:54.586Z,5.28
2022-09-10T12:38:29.567Z,4.13
2022-09-10T12:46:51.278Z,5.97
2022-09-10T12:55:07.150Z,6.43
2022-09-10T13:03:19.894Z,9.00
2022-09-10T13:11:27.029Z,9.68
2022-09-10T13:19:54.102Z,8.45
2022-09-10T13:27:59.410Z,10.10
2022-09-10T13:36:20.330Z,9.27
2022-09-10T13:44:46.184Z,9.23
2022-09-10T13:52:57.838Z,8.00
2022-09-10T14:01:05.759Z,7.30
2022-09-10T14:09:14.901Z,6.20
2022-09-10T14:17:26.286Z,6.55
2022-09-10T14:25:36.765Z,6.72
2022-09-10T14:33:49.708Z,7.32
2022-09-10T14:42:27.447Z,6.95
2022-09-10T14:50:37.660Z,7.13
2022-09-10T14:58:46.096Z,6.05
2022-09-10T15:06:57.349Z,5.65
2022-09-10T15:15:07.939Z,5.35
2022-09-10T15:23:14.370Z,5.35
2022-09-10T15:31:23.429Z,5.03
2022-09-10T15:39:28.718Z,5.03
2022-09-10T15:47:37.377Z,5.10
2022-09-10T15:55:42.689Z,4.95
2022-09-10T16:04:05.025Z,4.95
2022-09-10T16:12:10.749Z,7.50
2022-09-10T16:20:20.416Z,5.90
2022-09-10T16:28:35.114Z,6.53
2022-09-10T16:36:43.688Z,8.35
2022-09-10T16:44:49.259Z,8.15
2022-09-10T16:53:03.741Z,6.97
2022-09-10T17:01:11.909Z,7.55
2022-09-10T17:09:19.989Z,8.25
2022-09-10T17:17:25.321Z,8.40
2022-09-10T17:25:33.200Z,7.80
2022-09-10T17:33:39.140Z,7.88
2022-09-10T17:41:47.265Z,7.70
2022-09-10T17:49:52.748Z,8.60
2022-09-10T17:58:02.175Z,9.45
2022-09-10T18:06:25.338Z,8.63
2022-09-10T18:14:33.330Z,9.88
2022-09-10T18:22:38.628Z,9.55
2022-09-10T18:30:46.482Z,7.50
2022-09-10T18:38:52.943Z,11.80
2022-09-10T18:47:00.822Z,11.80
2022-09-10T18:55:06.557Z,10.65
2022-09-10T19:03:14.510Z,6.75
2022-09-10T19:11:24.538Z,9.75
2022-09-10T19:19:34.084Z,9.32
2022-09-10T19:27:42.409Z,9.68
2022-09-10T19:35:54.633Z,8.70
2022-09-10T19:44:17.750Z,6.32
2022-09-10T19:52:27.281Z,7.35
2022-09-10T20:00:46.417Z,7.55
2022-09-10T20:08:55.422Z,7.38
2022-09-10T20:17:12.199Z,5.93
2022-09-10T20:25:20.214Z,4.68
2022-09-10T20:33:27.059Z,3.67
2022-09-10T20:41:39.295Z,3.75
2022-09-10T20:49:44.662Z,2.87
2022-09-10T20:57:52.570Z,2.50
2022-09-10T21:05:58.494Z,2.13
2022-09-10T21:14:10.385Z,1.90
2022-09-10T21:22:15.699Z,1.95
2022-09-10T21:30:23.670Z,2.17
2022-09-10T21:38:29.306Z,1.55
2022-09-10T21:46:40.122Z,1.75
2022-09-10T21:54:45.488Z,2.00
2022-09-10T22:02:55.561Z,2.05
2022-09-10T22:11:01.139Z,3.40
2022-09-10T22:19:19.367Z,4.10
2022-09-10T22:27:24.717Z,4.47
2022-09-10T22:35:34.722Z,4.50
2022-09-10T22:43:41.369Z,5.00
2022-09-10T22:51:49.309Z,3.78
2022-09-10T22:59:56.315Z,3.70
2022-09-10T23:08:04.505Z,3.45
2022-09-10T23:16:20.021Z,3.00
2022-09-10T23:24:29.203Z,3.10
2022-09-10T23:32:34.520Z,4.15
2022-09-10T23:40:44.226Z,4.45
2022-09-10T23:48:49.649Z,5.15
2022-09-10T23:56:57.567Z,4.60
